Gaasvaer, Noruega

8:42 PM CET en Diciembre 03, 2016 (GMT +0100)
Fylkesvei 17 | | Change Station

Alt -10000 ft 66.04 °N, 12.69 °E | Updated 2 minutes ago

Light Rain Showers
Lluvia débil
30.4 ° F
Sensación térmica 27 ° F
N
3.1
Viento Variable Viento desde ENE
Gusts 8.1 mph

Hoy
Alta -- | Baja -- ° F
--% Posibilidad de precipitaciones
Ayer
Alta -- | Baja -- ° F
Precip. -- pul
Presión 29.92 pul
Visibilidad 6.2 Millas
Nubes Muy nublado 3000 ft
Nublado 4300 ft
Vientos helados 27 ° F
Punto de rocío 29 ° F
Humedad 94%
Precipitaciones 0.00 pul
Espesor de la nieve No disponible.
10:07 AM 1:55 PM
Creciente, 16% visible
METAR ENBN 031920Z AUTO 15011KT 120V210 9999NDV -SHRA BKN030/// OVC043/// 01/M02 Q1013
Presión 29.92 pul
Visibilidad 6.2 Millas
Nubes Muy nublado 3000 ft
Nublado 4300 ft
Vientos helados 27 ° F
Punto de rocío 29 ° F
Humedad 94%
Precipitaciones 0.00 pul
Espesor de la nieve No disponible.
10:07 AM 1:55 PM
Creciente, 16% visible
METAR ENBN 031920Z AUTO 15011KT 120V210 9999NDV -SHRA BKN030/// OVC043/// 01/M02 Q1013

10-Day Weather Forecast

×

Almanac

Astronomía

Dec. 03, 2016 Salida Puesta
Hora real
Crepúsculo civil
Crepúsculo náutico
Crepúsculo astronómico
Luna
Horas de luz
Horas de luz
Tomorrow will be .
, % of the Moon is Illuminated

Extremos de hoy

Máximos del país Bajas del país

Community

WunderPhotos

Upload Photos

1,955,481 ¡fotos cargadas!

WunderBlog® & News

Nearby

Calidad del aire

  Calidad del aire Índice AQ Contaminante
Not available.

Grosos de nieve

Estación Profundido Altura

Actividad de terremotos

Ciudad Distance Mag. Tiempo y dato
Magnitud mínima muestra es 2,5.

Temperaturas de aguas costeras

Lugar Temperatura

Stations

Estaciones meteorológicas cercanas

Ubicación de la estación Temp. Vientos helados Punto de rocío Humedad Viento Precip. Alt Actualizado Tipo